Weather at Redzikowo Air Base [CLOSED]

Public forecast

Using degrees Celsius for public forecast. Weather courtesy of forecast.io.

Closest aviation weather report (METAR) to Redzikowo Air Base

Closest report is Gdańsk Lech Wałęsa Airport, 47.8 nm (88.6 km) E. Retrieved 2021/06/13 11:30 UTC (0 seconds ago):

EPGD 131130Z 30021KT 9999 FEW027 SCT031 18/10 Q1017

Closest aviation forecast (TAF) to Redzikowo Air Base

Closest forecast is Gdańsk Lech Wałęsa Airport, 47.8 nm (88.6 km) E. Retrieved 2021/06/13 06:37 UTC (5 hours ago):

TAF EPGD 130530Z 1306/1406 32016G28KT 9999 SCT030 BECMG 1316/1319 27006KT